createdAt,value
2022-12-07T00:00:50.408Z,53.06
2022-12-07T00:02:21.834Z,51.43
2022-12-07T00:03:53.224Z,52.18
2022-12-07T00:05:24.515Z,48.89
2022-12-07T00:07:00.764Z,49.64
2022-12-07T00:08:32.105Z,53.72
2022-12-07T00:10:03.744Z,49.81
2022-12-07T00:11:50.397Z,51.04
2022-12-07T00:13:26.712Z,50.99
2022-12-07T00:14:58.093Z,44.70
2022-12-07T00:16:29.418Z,49.49
2022-12-07T00:18:00.883Z,49.62
2022-12-07T00:19:32.101Z,53.35
2022-12-07T00:21:03.489Z,46.36
2022-12-07T00:22:34.722Z,48.94
2022-12-07T00:24:06.315Z,48.74
2022-12-07T00:25:37.550Z,46.97
2022-12-07T00:27:08.750Z,49.69
2022-12-07T00:28:40.027Z,51.28
2022-12-07T00:30:11.352Z,47.85
2022-12-07T00:31:47.828Z,51.69
2022-12-07T00:33:19.211Z,51.25
2022-12-07T00:34:50.414Z,48.42
2022-12-07T00:36:26.245Z,48.24
2022-12-07T00:37:58.316Z,41.20
2022-12-07T00:39:29.688Z,48.04
2022-12-07T00:41:01.131Z,48.76
2022-12-07T00:42:32.376Z,45.71
2022-12-07T00:44:03.716Z,44.43
2022-12-07T00:45:35.192Z,45.80
2022-12-07T00:47:06.416Z,47.20
2022-12-07T00:48:37.611Z,45.79
2022-12-07T00:50:08.939Z,47.62
2022-12-07T00:51:40.318Z,45.71
2022-12-07T00:53:11.650Z,44.35
2022-12-07T00:54:43.027Z,46.18
2022-12-07T00:56:14.456Z,44.48
2022-12-07T00:57:45.706Z,46.78
2022-12-07T00:59:17.129Z,44.22
2022-12-07T01:00:48.317Z,43.24
2022-12-07T01:02:19.556Z,42.56
2022-12-07T01:03:50.832Z,42.87
2022-12-07T01:05:22.252Z,42.70
2022-12-07T01:06:53.952Z,41.68
2022-12-07T01:08:25.471Z,42.14
2022-12-07T01:09:56.809Z,40.21
2022-12-07T01:11:28.246Z,39.82
2022-12-07T01:12:59.582Z,41.27
2022-12-07T01:14:31.584Z,40.85
2022-12-07T01:16:03.505Z,38.59
2022-12-07T01:17:34.710Z,33.86
2022-12-07T01:19:06.018Z,38.78
2022-12-07T01:20:37.204Z,39.42
2022-12-07T01:22:08.440Z,40.32
2022-12-07T01:23:39.925Z,36.11
2022-12-07T01:25:11.129Z,34.92
2022-12-07T01:26:42.315Z,37.25
2022-12-07T01:28:13.574Z,40.23
2022-12-07T01:29:45.009Z,41.47
2022-12-07T01:31:16.378Z,40.71
2022-12-07T01:32:47.619Z,38.65
2022-12-07T01:34:18.974Z,39.87
2022-12-07T01:35:50.189Z,42.03
2022-12-07T01:37:21.459Z,40.55
2022-12-07T01:38:52.721Z,40.50
2022-12-07T01:40:23.974Z,40.79
2022-12-07T01:41:55.557Z,38.32
2022-12-07T01:43:26.818Z,43.21
2022-12-07T01:44:58.099Z,40.01
2022-12-07T01:46:29.451Z,39.98
2022-12-07T01:48:00.762Z,43.59
2022-12-07T01:49:32.028Z,39.83
2022-12-07T01:51:03.457Z,42.15
2022-12-07T01:52:35.083Z,41.51
2022-12-07T01:54:06.235Z,41.81
2022-12-07T01:55:37.429Z,41.60
2022-12-07T01:57:28.667Z,43.75
2022-12-07T01:59:21.065Z,44.26
2022-12-07T02:01:07.491Z,42.51
2022-12-07T02:02:49.137Z,43.80
2022-12-07T02:04:20.398Z,41.62
2022-12-07T02:05:51.660Z,43.27
2022-12-07T02:07:23.067Z,45.20
2022-12-07T02:08:54.367Z,42.98
2022-12-07T02:10:25.633Z,43.34
2022-12-07T02:11:56.891Z,43.80
2022-12-07T02:13:28.146Z,43.02
2022-12-07T02:14:59.674Z,42.01
2022-12-07T02:16:31.040Z,41.67
2022-12-07T02:18:02.461Z,41.72
2022-12-07T02:19:33.940Z,43.24
2022-12-07T02:21:05.351Z,43.38
2022-12-07T02:22:36.636Z,43.04
2022-12-07T02:24:08.041Z,42.15
2022-12-07T02:25:39.351Z,42.06
2022-12-07T02:27:10.571Z,41.34
2022-12-07T02:28:41.888Z,41.39
2022-12-07T02:30:13.173Z,41.85
2022-12-07T02:31:44.957Z,41.65
2022-12-07T02:33:16.191Z,40.74
2022-12-07T02:34:47.458Z,40.95
2022-12-07T02:36:18.767Z,36.54
2022-12-07T02:37:50.054Z,39.86
2022-12-07T02:39:21.344Z,39.10
2022-12-07T02:40:52.881Z,42.26
2022-12-07T02:42:24.254Z,42.20
2022-12-07T02:43:55.699Z,42.27
2022-12-07T02:45:26.976Z,40.58
2022-12-07T02:46:58.236Z,41.03
2022-12-07T02:48:29.507Z,40.05
2022-12-07T02:50:10.935Z,36.94
2022-12-07T02:51:42.125Z,36.15
2022-12-07T02:53:14.730Z,39.59
2022-12-07T02:54:45.974Z,39.22
2022-12-07T02:56:17.522Z,37.95
2022-12-07T02:57:49.075Z,36.99
2022-12-07T02:59:20.299Z,42.34
2022-12-07T03:00:52.216Z,41.18
2022-12-07T03:02:23.475Z,38.59
2022-12-07T03:03:54.731Z,36.22
2022-12-07T03:05:26.211Z,38.67
2022-12-07T03:06:57.440Z,37.43
2022-12-07T03:08:28.687Z,37.15
2022-12-07T03:10:00.355Z,38.12
2022-12-07T03:11:37.008Z,38.30
2022-12-07T03:13:08.443Z,39.87
2022-12-07T03:14:39.794Z,34.43
2022-12-07T03:16:11.088Z,39.44
2022-12-07T03:17:42.285Z,38.38
2022-12-07T03:19:13.500Z,38.62
2022-12-07T03:20:44.675Z,37.11
2022-12-07T03:22:16.053Z,38.47
2022-12-07T03:23:47.464Z,38.21
2022-12-07T03:25:18.934Z,36.84
2022-12-07T03:26:50.144Z,40.01
2022-12-07T03:28:21.469Z,35.83
2022-12-07T03:29:52.728Z,37.13
2022-12-07T03:31:24.143Z,38.92
2022-12-07T03:32:55.818Z,36.30
2022-12-07T03:34:27.120Z,38.32
2022-12-07T03:35:58.603Z,37.73
2022-12-07T03:37:30.218Z,36.29
2022-12-07T03:39:01.550Z,39.16
2022-12-07T03:40:32.911Z,37.90
2022-12-07T03:42:04.123Z,36.65
2022-12-07T03:43:35.584Z,38.63
2022-12-07T03:45:06.787Z,34.99
2022-12-07T03:46:38.331Z,37.88
2022-12-07T03:48:09.696Z,38.86
2022-12-07T03:49:40.981Z,38.71
2022-12-07T03:51:12.155Z,35.44
2022-12-07T03:52:43.412Z,35.98
2022-12-07T03:54:14.640Z,38.03
2022-12-07T03:55:45.991Z,37.84
2022-12-07T03:57:17.221Z,38.82
2022-12-07T03:58:48.754Z,36.85
2022-12-07T04:00:19.988Z,37.28
2022-12-07T04:01:51.333Z,37.53
2022-12-07T04:03:22.749Z,37.10
2022-12-07T04:04:54.342Z,38.46
2022-12-07T04:06:25.663Z,37.07
2022-12-07T04:07:56.976Z,36.69
2022-12-07T04:09:28.241Z,37.44
2022-12-07T04:10:59.462Z,37.93
2022-12-07T04:12:30.686Z,34.90
2022-12-07T04:14:02.122Z,35.57
2022-12-07T04:15:33.498Z,35.19
2022-12-07T04:17:05.035Z,35.67
2022-12-07T04:18:36.437Z,31.51
2022-12-07T04:20:07.579Z,33.42
2022-12-07T04:21:38.723Z,34.28
2022-12-07T04:23:10.145Z,31.91
2022-12-07T04:24:41.667Z,32.25
2022-12-07T04:26:13.186Z,31.40
2022-12-07T04:27:44.456Z,33.42
2022-12-07T04:29:15.779Z,32.15
2022-12-07T04:30:46.988Z,31.05
2022-12-07T04:32:18.620Z,30.36
2022-12-07T04:33:49.864Z,30.79
2022-12-07T04:35:21.180Z,27.62
2022-12-07T04:36:52.402Z,31.11
2022-12-07T04:38:23.721Z,35.23
2022-12-07T04:39:54.936Z,32.35
2022-12-07T04:41:26.100Z,26.24
2022-12-07T04:42:57.297Z,28.82
2022-12-07T04:44:28.433Z,29.83
2022-12-07T04:45:59.680Z,26.48
2022-12-07T04:47:30.908Z,27.37
2022-12-07T04:49:02.721Z,31.04
2022-12-07T04:50:34.163Z,29.52
2022-12-07T04:52:05.549Z,27.88
2022-12-07T04:53:36.825Z,29.70
2022-12-07T04:55:08.020Z,26.47
2022-12-07T04:56:39.567Z,26.69
2022-12-07T04:58:10.782Z,29.07
2022-12-07T04:59:45.487Z,29.12
2022-12-07T05:01:17.560Z,28.88
2022-12-07T05:02:48.802Z,28.24
2022-12-07T05:04:20.145Z,30.64
2022-12-07T05:05:51.711Z,31.10
2022-12-07T05:07:23.549Z,30.64
2022-12-07T05:08:54.792Z,28.69
2022-12-07T05:10:26.057Z,28.63
2022-12-07T05:11:57.327Z,27.64
2022-12-07T05:13:28.515Z,32.83
2022-12-07T05:14:59.934Z,31.55
2022-12-07T05:16:31.452Z,29.59
2022-12-07T05:18:02.970Z,29.65
2022-12-07T05:19:39.657Z,34.23
2022-12-07T05:21:10.969Z,33.59
2022-12-07T05:22:42.303Z,33.08
2022-12-07T05:24:13.602Z,32.04
2022-12-07T05:25:44.844Z,32.15
2022-12-07T05:27:16.087Z,32.30
2022-12-07T05:28:47.430Z,30.91
2022-12-07T05:30:18.636Z,30.68
2022-12-07T05:31:50.047Z,32.73
2022-12-07T05:33:21.663Z,36.50
2022-12-07T05:34:52.893Z,34.58
2022-12-07T05:36:24.243Z,29.40
2022-12-07T05:37:55.772Z,28.75
2022-12-07T05:39:31.983Z,34.53
2022-12-07T05:41:03.583Z,29.12
2022-12-07T05:42:34.912Z,33.57
2022-12-07T05:44:06.043Z,33.63
2022-12-07T05:45:37.406Z,30.26
2022-12-07T05:47:08.712Z,33.02
2022-12-07T05:48:39.868Z,30.46
2022-12-07T05:50:11.310Z,30.58
2022-12-07T05:51:42.659Z,33.03
2022-12-07T05:53:16.409Z,27.86
2022-12-07T05:54:51.294Z,34.00
2022-12-07T05:56:22.505Z,34.49
2022-12-07T05:57:53.954Z,29.32
2022-12-07T05:59:25.197Z,32.24
2022-12-07T06:00:56.479Z,33.68
2022-12-07T06:02:27.763Z,32.80
2022-12-07T06:03:59.023Z,35.37
2022-12-07T06:06:09.096Z,32.04
2022-12-07T06:07:42.740Z,35.07
2022-12-07T06:09:14.183Z,32.34
2022-12-07T06:10:45.536Z,32.22
2022-12-07T06:12:16.785Z,33.12
2022-12-07T06:13:47.993Z,32.75
2022-12-07T06:15:19.313Z,32.89
2022-12-07T06:16:51.336Z,34.26
2022-12-07T06:18:23.113Z,33.88
2022-12-07T06:19:54.447Z,33.72
2022-12-07T06:21:26.032Z,33.44
2022-12-07T06:22:57.179Z,31.53
2022-12-07T06:24:28.414Z,30.06
2022-12-07T06:26:00.166Z,33.57
2022-12-07T06:27:31.382Z,30.27
2022-12-07T06:29:02.867Z,31.01
2022-12-07T06:30:34.043Z,32.74
2022-12-07T06:32:05.956Z,30.10
2022-12-07T06:33:38.167Z,29.45
2022-12-07T06:35:09.461Z,30.13
2022-12-07T06:36:41.032Z,33.02
2022-12-07T06:38:12.194Z,35.42
2022-12-07T06:39:43.457Z,37.67
2022-12-07T06:41:14.688Z,34.38
2022-12-07T06:42:46.021Z,35.46
2022-12-07T06:44:17.257Z,30.69
2022-12-07T06:45:48.553Z,32.21
2022-12-07T06:47:40.485Z,35.30
2022-12-07T06:49:12.036Z,30.15
2022-12-07T06:50:43.658Z,30.81
2022-12-07T06:52:14.989Z,32.62
2022-12-07T06:53:46.517Z,38.18
2022-12-07T06:55:17.824Z,34.73
2022-12-07T06:56:49.024Z,34.37
2022-12-07T06:58:20.569Z,32.49
2022-12-07T06:59:51.950Z,33.97
2022-12-07T07:01:23.189Z,35.82
2022-12-07T07:02:55.503Z,33.39
2022-12-07T07:04:26.834Z,36.16
2022-12-07T07:05:58.033Z,33.75
2022-12-07T07:07:29.248Z,33.97
2022-12-07T07:09:00.782Z,32.91
2022-12-07T07:10:32.191Z,34.34
2022-12-07T07:12:03.473Z,29.79
2022-12-07T07:13:34.706Z,32.75
2022-12-07T07:15:05.910Z,31.84
2022-12-07T07:16:37.270Z,28.79
2022-12-07T07:18:08.825Z,31.40
2022-12-07T07:19:40.155Z,32.09
2022-12-07T07:21:11.440Z,30.71
2022-12-07T07:22:43.880Z,31.66
2022-12-07T07:24:15.080Z,30.46
2022-12-07T07:25:46.284Z,28.19
2022-12-07T07:27:18.701Z,27.96
2022-12-07T07:28:49.921Z,30.66
2022-12-07T07:30:21.421Z,28.73
2022-12-07T07:31:52.653Z,29.56
2022-12-07T07:33:23.880Z,28.17
2022-12-07T07:34:55.269Z,27.83
2022-12-07T07:36:26.487Z,28.02
2022-12-07T07:37:57.807Z,23.45
2022-12-07T07:39:29.058Z,29.52
2022-12-07T07:41:00.488Z,28.56
2022-12-07T07:42:32.123Z,27.76
2022-12-07T07:44:03.678Z,26.16
2022-12-07T07:45:34.859Z,23.52
2022-12-07T07:47:06.047Z,24.31
2022-12-07T07:48:37.197Z,26.77
2022-12-07T07:50:08.699Z,26.12
2022-12-07T07:51:40.555Z,26.10
2022-12-07T07:53:11.760Z,24.27
2022-12-07T07:54:43.183Z,23.77
2022-12-07T07:56:14.508Z,27.66
2022-12-07T07:57:51.238Z,27.96
2022-12-07T07:59:25.551Z,27.28
2022-12-07T08:00:57.079Z,29.20
2022-12-07T08:02:28.299Z,26.74
2022-12-07T08:03:59.655Z,26.89
2022-12-07T08:05:30.804Z,25.70
2022-12-07T08:07:02.224Z,23.98
2022-12-07T08:08:33.528Z,24.97
2022-12-07T08:10:05.590Z,28.11
2022-12-07T08:11:36.978Z,27.38
2022-12-07T08:13:08.134Z,27.65
2022-12-07T08:14:39.456Z,26.42
2022-12-07T08:16:10.796Z,27.82
2022-12-07T08:17:42.228Z,24.03
2022-12-07T08:19:13.369Z,24.72
2022-12-07T08:20:45.320Z,24.89
2022-12-07T08:22:19.266Z,27.41
2022-12-07T08:23:50.864Z,27.38
2022-12-07T08:25:22.210Z,25.49
2022-12-07T08:26:53.406Z,25.06
2022-12-07T08:28:24.721Z,23.75
2022-12-07T08:29:56.036Z,24.01
2022-12-07T08:31:27.357Z,25.87
2022-12-07T08:32:58.594Z,23.73
2022-12-07T08:34:29.922Z,23.32
2022-12-07T08:36:01.164Z,23.43
2022-12-07T08:37:32.475Z,25.80
2022-12-07T08:39:32.101Z,24.04
2022-12-07T08:41:04.105Z,24.29
2022-12-07T08:42:35.243Z,22.08
2022-12-07T08:44:07.443Z,23.22
2022-12-07T08:45:38.693Z,22.95
2022-12-07T08:47:10.056Z,23.97
2022-12-07T08:48:41.239Z,25.20
2022-12-07T08:50:12.474Z,23.09
2022-12-07T08:51:43.872Z,24.58
2022-12-07T08:53:15.258Z,25.65
2022-12-07T08:54:46.460Z,21.64
2022-12-07T08:56:22.720Z,25.48
2022-12-07T08:57:59.015Z,26.92
2022-12-07T08:59:30.665Z,24.76
2022-12-07T09:01:02.166Z,25.50
2022-12-07T09:02:33.611Z,23.38
2022-12-07T09:04:09.818Z,26.24
2022-12-07T09:05:41.022Z,22.47
2022-12-07T09:07:12.507Z,23.21
2022-12-07T09:08:43.774Z,23.47
2022-12-07T09:10:15.020Z,24.49
2022-12-07T09:11:46.426Z,24.21
2022-12-07T09:13:17.647Z,22.71
2022-12-07T09:15:04.107Z,25.82
2022-12-07T09:16:35.838Z,23.79
2022-12-07T09:18:07.203Z,24.09
2022-12-07T09:19:38.514Z,25.89
2022-12-07T09:21:09.723Z,25.38
2022-12-07T09:22:40.971Z,23.77
2022-12-07T09:24:12.390Z,24.14
2022-12-07T09:25:44.155Z,25.99
2022-12-07T09:27:16.122Z,21.92
2022-12-07T09:28:47.507Z,25.09
2022-12-07T09:30:18.824Z,26.08
2022-12-07T09:31:50.211Z,22.73
2022-12-07T09:33:21.607Z,24.77
2022-12-07T09:34:52.913Z,26.68
2022-12-07T09:36:24.381Z,22.84
2022-12-07T09:37:55.989Z,20.39
2022-12-07T09:39:28.738Z,20.89
2022-12-07T09:41:00.084Z,22.40
2022-12-07T09:42:31.658Z,18.77
2022-12-07T09:44:03.177Z,21.12
2022-12-07T09:45:34.498Z,23.08
2022-12-07T09:47:05.820Z,22.68
2022-12-07T09:48:37.058Z,22.06
2022-12-07T09:50:08.274Z,24.10
2022-12-07T09:51:39.726Z,23.76
2022-12-07T09:53:12.379Z,24.61
2022-12-07T09:54:43.991Z,26.61
2022-12-07T09:56:15.626Z,21.63
2022-12-07T09:57:46.842Z,20.98
2022-12-07T09:59:18.173Z,21.91
2022-12-07T10:00:49.671Z,21.17
2022-12-07T10:02:20.980Z,22.11
2022-12-07T10:03:52.245Z,25.24
2022-12-07T10:05:24.753Z,26.20
2022-12-07T10:06:56.140Z,27.47
2022-12-07T10:08:27.464Z,21.89
2022-12-07T10:09:58.727Z,27.75
2022-12-07T10:11:30.186Z,26.84
2022-12-07T10:13:01.400Z,27.27
2022-12-07T10:15:05.673Z,27.42
2022-12-07T10:16:37.944Z,30.21
2022-12-07T10:18:09.162Z,28.26
2022-12-07T10:19:40.330Z,31.33
2022-12-07T10:21:11.575Z,30.18
2022-12-07T10:22:42.782Z,34.53
2022-12-07T10:24:14.089Z,32.72
2022-12-07T10:25:45.391Z,30.85
2022-12-07T10:27:17.314Z,33.85
2022-12-07T10:28:48.685Z,31.95
2022-12-07T10:30:20.116Z,30.97
2022-12-07T10:31:51.597Z,27.48
2022-12-07T10:33:23.058Z,29.49
2022-12-07T10:34:54.369Z,32.34
2022-12-07T10:36:25.662Z,28.95
2022-12-07T10:37:57.251Z,27.68
2022-12-07T10:39:29.663Z,26.90
2022-12-07T10:41:00.894Z,31.03
2022-12-07T10:42:32.163Z,25.73
2022-12-07T10:44:08.761Z,25.85
2022-12-07T10:45:52.007Z,27.52
2022-12-07T10:47:34.511Z,24.97
2022-12-07T10:49:05.936Z,24.39
2022-12-07T10:50:52.361Z,25.11
2022-12-07T10:52:23.936Z,24.43
2022-12-07T10:53:55.289Z,23.71
2022-12-07T10:55:26.605Z,24.05
2022-12-07T10:56:57.997Z,25.53
2022-12-07T10:58:29.317Z,26.29
2022-12-07T11:00:00.544Z,23.54
2022-12-07T11:01:32.186Z,24.16
2022-12-07T11:03:08.536Z,20.25
2022-12-07T11:04:39.987Z,21.41
2022-12-07T11:06:21.659Z,23.66
2022-12-07T11:07:56.787Z,24.28
2022-12-07T11:09:59.482Z,22.98
2022-12-07T11:11:37.804Z,21.14
2022-12-07T11:13:09.250Z,20.15
2022-12-07T11:14:40.618Z,18.45
2022-12-07T11:16:11.913Z,18.06
2022-12-07T11:17:43.297Z,19.47
2022-12-07T11:19:14.750Z,17.68
2022-12-07T11:20:46.019Z,20.41
2022-12-07T11:22:17.267Z,23.58
2022-12-07T11:23:48.646Z,25.98
2022-12-07T11:25:24.259Z,21.92
2022-12-07T11:26:58.448Z,17.44
2022-12-07T11:28:29.818Z,19.41
2022-12-07T11:30:01.523Z,25.32
2022-12-07T11:31:33.153Z,20.51
2022-12-07T11:33:04.325Z,21.33
2022-12-07T11:34:35.492Z,20.21
2022-12-07T11:36:06.942Z,17.05
2022-12-07T11:39:12.243Z,15.14
2022-12-07T11:40:43.530Z,16.32
2022-12-07T11:42:14.723Z,18.19
2022-12-07T11:43:46.071Z,17.63
2022-12-07T11:45:17.308Z,13.84
2022-12-07T11:46:48.550Z,14.99
2022-12-07T11:48:19.813Z,14.66
2022-12-07T11:49:51.164Z,17.26
2022-12-07T11:51:22.441Z,17.89
2022-12-07T11:52:53.743Z,15.28
2022-12-07T11:54:25.188Z,16.79
2022-12-07T11:55:56.521Z,15.31
2022-12-07T11:57:27.838Z,17.57
2022-12-07T11:58:59.493Z,14.53
2022-12-07T12:00:30.681Z,14.09
2022-12-07T12:02:02.250Z,11.29
2022-12-07T12:03:34.012Z,16.32
2022-12-07T12:05:05.181Z,15.33
2022-12-07T12:06:36.372Z,17.38
2022-12-07T12:10:09.247Z,17.36
2022-12-07T12:11:40.544Z,18.61
2022-12-07T12:15:14.070Z,15.67
2022-12-07T12:16:45.422Z,12.33
2022-12-07T12:18:17.016Z,14.87
2022-12-07T12:19:48.267Z,17.84
2022-12-07T12:21:22.028Z,16.84
2022-12-07T12:22:53.262Z,13.00
2022-12-07T12:24:24.601Z,11.59
2022-12-07T12:25:55.977Z,13.01
2022-12-07T12:27:27.295Z,15.36
2022-12-07T12:28:59.036Z,14.95
2022-12-07T12:30:30.475Z,13.83
2022-12-07T12:32:01.802Z,11.86
2022-12-07T12:33:33.071Z,11.80
2022-12-07T12:35:04.668Z,11.07
2022-12-07T12:36:36.416Z,11.20
2022-12-07T12:38:07.779Z,12.56
2022-12-07T12:39:38.958Z,12.92
2022-12-07T12:41:10.315Z,12.02
2022-12-07T12:42:41.551Z,10.26
2022-12-07T12:44:12.845Z,12.10
2022-12-07T12:45:44.492Z,11.20
2022-12-07T12:47:15.804Z,12.03
2022-12-07T12:48:47.057Z,12.39
2022-12-07T12:50:18.277Z,12.49
2022-12-07T12:51:49.537Z,9.82
2022-12-07T12:53:20.866Z,11.16
2022-12-07T12:54:53.443Z,11.32
2022-12-07T12:56:24.723Z,12.70
2022-12-07T12:57:56.851Z,10.36
2022-12-07T12:59:28.105Z,9.13
2022-12-07T13:00:59.633Z,11.25
2022-12-07T13:02:30.993Z,10.51
2022-12-07T13:04:02.277Z,10.76
2022-12-07T13:05:33.725Z,9.55
2022-12-07T13:07:05.269Z,11.24
2022-12-07T13:08:36.771Z,11.54
2022-12-07T13:10:13.113Z,12.07
2022-12-07T13:11:44.455Z,11.29
2022-12-07T13:13:15.708Z,15.30
2022-12-07T13:14:46.960Z,12.56
2022-12-07T13:16:18.247Z,11.72
2022-12-07T13:17:49.702Z,11.40
2022-12-07T13:19:21.098Z,10.67
2022-12-07T13:20:52.375Z,8.37
2022-12-07T13:22:23.656Z,10.35
2022-12-07T13:23:55.180Z,11.45
2022-12-07T13:25:26.356Z,11.17
2022-12-07T13:26:57.716Z,11.42
2022-12-07T13:28:28.953Z,9.09
2022-12-07T13:30:05.287Z,9.08
2022-12-07T13:31:41.717Z,9.95
2022-12-07T13:33:17.932Z,10.12
2022-12-07T13:34:54.194Z,10.72
2022-12-07T13:36:59.085Z,11.62
2022-12-07T13:38:31.935Z,7.77
2022-12-07T13:40:03.145Z,9.26
2022-12-07T13:41:34.375Z,8.61
2022-12-07T13:43:16.132Z,11.36
2022-12-07T13:44:47.495Z,11.74
2022-12-07T13:46:18.849Z,10.39
2022-12-07T13:48:18.201Z,12.22
2022-12-07T13:49:53.162Z,11.27
2022-12-07T13:51:25.111Z,12.82
2022-12-07T13:52:56.353Z,12.91
2022-12-07T13:54:27.690Z,10.42
2022-12-07T13:55:59.151Z,11.15
2022-12-07T13:57:30.580Z,11.25
2022-12-07T13:59:02.667Z,12.09
2022-12-07T14:00:34.085Z,10.22
2022-12-07T14:02:05.345Z,12.88
2022-12-07T14:03:37.092Z,8.49
2022-12-07T14:05:08.416Z,11.45
2022-12-07T14:06:40.455Z,11.33
2022-12-07T14:08:11.883Z,13.02
2022-12-07T14:09:43.172Z,13.43
2022-12-07T14:11:14.521Z,11.15
2022-12-07T14:12:46.085Z,14.13
2022-12-07T14:14:17.441Z,9.11
2022-12-07T14:15:48.752Z,15.49
2022-12-07T14:17:20.260Z,12.92
2022-12-07T14:18:51.849Z,13.63
2022-12-07T14:20:23.147Z,13.43
2022-12-07T14:21:54.794Z,11.01
2022-12-07T14:23:26.093Z,10.72
2022-12-07T14:24:57.399Z,10.71
2022-12-07T14:26:28.731Z,9.37
2022-12-07T14:28:00.129Z,8.22
2022-12-07T14:29:31.406Z,6.98
2022-12-07T14:31:02.711Z,7.22
2022-12-07T14:32:33.995Z,6.35
2022-12-07T14:34:05.230Z,6.53
2022-12-07T14:35:36.449Z,5.45
2022-12-07T14:37:07.695Z,6.41
2022-12-07T14:38:39.098Z,5.34
2022-12-07T14:40:10.453Z,6.01
2022-12-07T14:41:41.640Z,7.09
2022-12-07T14:43:13.122Z,6.40
2022-12-07T14:44:44.322Z,8.18
2022-12-07T14:46:15.683Z,7.56
2022-12-07T14:49:48.596Z,5.99
2022-12-07T14:54:53.691Z,7.79
2022-12-07T14:56:25.125Z,6.76
2022-12-07T14:57:56.374Z,6.81
2022-12-07T14:59:32.615Z,6.82
2022-12-07T15:01:04.019Z,5.90
2022-12-07T15:02:35.460Z,6.99
2022-12-07T15:04:07.144Z,7.65
2022-12-07T15:05:38.686Z,8.40
2022-12-07T15:07:10.017Z,6.75
2022-12-07T15:08:41.385Z,9.28
2022-12-07T15:10:12.613Z,9.67
2022-12-07T15:11:44.698Z,9.13
2022-12-07T15:13:16.187Z,7.45
2022-12-07T15:14:48.358Z,10.02
2022-12-07T15:16:19.611Z,7.74
2022-12-07T15:17:50.890Z,10.14
2022-12-07T15:19:28.830Z,9.93
2022-12-07T15:21:00.826Z,8.17
2022-12-07T15:22:38.016Z,8.88
2022-12-07T15:24:09.606Z,10.49
2022-12-07T15:25:40.778Z,11.98
2022-12-07T15:27:12.138Z,8.50
2022-12-07T15:28:43.556Z,10.18
2022-12-07T15:30:14.985Z,9.72
2022-12-07T15:31:55.606Z,10.11
2022-12-07T15:33:33.039Z,11.34
2022-12-07T15:35:05.040Z,11.01
2022-12-07T15:36:36.723Z,11.04
2022-12-07T15:38:08.219Z,10.84
2022-12-07T15:39:39.775Z,15.97
2022-12-07T15:41:11.231Z,16.79
2022-12-07T15:42:42.582Z,19.51
2022-12-07T15:44:14.315Z,18.87
2022-12-07T15:45:45.946Z,20.86
2022-12-07T15:47:17.323Z,18.82
2022-12-07T15:48:49.284Z,17.87
2022-12-07T15:50:20.517Z,17.09
2022-12-07T15:51:51.744Z,19.18
2022-12-07T15:53:23.099Z,17.53
2022-12-07T15:55:36.095Z,17.09
2022-12-07T15:57:07.486Z,18.19
2022-12-07T15:58:39.278Z,20.02
2022-12-07T16:00:10.640Z,15.50
2022-12-07T16:01:41.914Z,18.27
2022-12-07T16:03:13.248Z,16.10
2022-12-07T16:04:44.576Z,16.13
2022-12-07T16:06:16.116Z,19.62
2022-12-07T16:07:47.906Z,16.90
2022-12-07T16:09:19.568Z,14.79
2022-12-07T16:10:50.892Z,16.07
2022-12-07T16:12:22.134Z,15.80
2022-12-07T16:13:53.537Z,17.07
2022-12-07T16:15:35.399Z,15.13
2022-12-07T16:17:11.696Z,13.91
2022-12-07T16:18:43.037Z,21.31
2022-12-07T16:20:52.086Z,19.07
2022-12-07T16:22:23.429Z,17.83
2022-12-07T16:23:56.550Z,16.21
2022-12-07T16:25:27.811Z,16.84
2022-12-07T16:26:59.138Z,11.17
2022-12-07T16:28:30.681Z,13.05
2022-12-07T16:30:01.999Z,12.87
2022-12-07T16:31:33.397Z,13.51
2022-12-07T16:33:05.286Z,14.47
2022-12-07T16:34:36.626Z,16.45
2022-12-07T16:36:08.128Z,15.63
2022-12-07T16:37:39.855Z,12.66
2022-12-07T16:39:11.191Z,13.06
2022-12-07T16:40:42.562Z,15.03
2022-12-07T16:42:13.837Z,15.12
2022-12-07T16:43:45.422Z,16.56
2022-12-07T16:45:20.833Z,15.62
2022-12-07T16:46:52.558Z,15.49
2022-12-07T16:48:23.910Z,15.67
2022-12-07T16:49:55.156Z,15.65
2022-12-07T16:53:53.959Z,16.24
2022-12-07T16:55:25.301Z,16.32
2022-12-07T16:56:56.645Z,16.12
2022-12-07T16:58:28.010Z,14.84
2022-12-07T16:59:59.506Z,15.06
2022-12-07T17:01:31.166Z,14.96
2022-12-07T17:03:02.291Z,15.03
2022-12-07T17:04:33.630Z,16.03
2022-12-07T17:06:05.570Z,14.62
2022-12-07T17:08:21.212Z,13.36
2022-12-07T17:10:05.970Z,15.78
2022-12-07T17:11:37.511Z,16.14
2022-12-07T17:13:08.928Z,15.06
2022-12-07T17:14:40.232Z,14.20
2022-12-07T17:16:11.631Z,13.48
2022-12-07T17:17:42.984Z,14.69
2022-12-07T17:19:14.747Z,15.76
2022-12-07T17:20:46.576Z,14.64
2022-12-07T17:22:18.104Z,14.07
2022-12-07T17:23:49.511Z,14.38
2022-12-07T17:25:40.820Z,18.40
2022-12-07T17:27:12.061Z,17.11
2022-12-07T17:28:43.610Z,20.70
2022-12-07T17:30:15.032Z,17.53
2022-12-07T17:31:50.929Z,16.37
2022-12-07T17:33:22.964Z,16.16
2022-12-07T17:34:55.407Z,14.58
2022-12-07T17:36:26.934Z,14.90
2022-12-07T17:37:58.462Z,14.73
2022-12-07T17:39:29.791Z,15.63
2022-12-07T17:41:01.473Z,13.88
2022-12-07T17:42:33.109Z,16.99
2022-12-07T17:44:06.183Z,16.20
2022-12-07T17:45:37.931Z,15.58
2022-12-07T17:47:09.447Z,15.44
2022-12-07T17:48:45.659Z,16.26
2022-12-07T17:50:17.202Z,14.89
2022-12-07T17:51:48.578Z,15.42
2022-12-07T17:53:20.211Z,15.52
2022-12-07T17:54:51.408Z,19.64
2022-12-07T17:56:29.492Z,17.82
2022-12-07T17:58:02.041Z,17.52
2022-12-07T17:59:38.888Z,13.04
2022-12-07T18:01:10.683Z,14.71
2022-12-07T18:02:42.082Z,16.70
2022-12-07T18:04:13.421Z,17.41
2022-12-07T18:05:44.981Z,14.14
2022-12-07T18:07:16.501Z,12.68
2022-12-07T18:08:47.809Z,12.83
2022-12-07T18:10:34.314Z,12.25
2022-12-07T18:12:11.016Z,11.50
2022-12-07T18:13:42.458Z,10.52
2022-12-07T18:15:14.819Z,7.74
2022-12-07T18:16:46.730Z,8.39
2022-12-07T18:18:18.048Z,9.26
2022-12-07T18:19:49.768Z,10.59
2022-12-07T18:21:21.058Z,11.67
2022-12-07T18:23:03.751Z,9.09
2022-12-07T18:24:52.205Z,7.60
2022-12-07T18:26:38.385Z,10.42
2022-12-07T18:28:09.593Z,9.88
2022-12-07T18:29:41.071Z,11.44
2022-12-07T18:31:15.209Z,12.25
2022-12-07T18:32:46.975Z,12.71
2022-12-07T18:34:18.280Z,12.83
2022-12-07T18:35:49.655Z,11.05
2022-12-07T18:37:26.431Z,14.90
2022-12-07T18:38:57.667Z,15.08
2022-12-07T18:40:39.084Z,14.22
2022-12-07T18:42:10.476Z,14.65
2022-12-07T18:43:42.164Z,14.70
2022-12-07T18:45:13.488Z,14.68
2022-12-07T18:46:49.764Z,17.17
2022-12-07T18:48:20.998Z,16.32
2022-12-07T18:49:52.986Z,18.35
2022-12-07T18:51:28.773Z,18.70
2022-12-07T18:53:03.278Z,18.74
2022-12-07T18:54:34.968Z,16.87
2022-12-07T18:56:06.250Z,19.92
2022-12-07T18:57:37.586Z,20.55
2022-12-07T18:59:08.770Z,19.15
2022-12-07T19:00:41.528Z,20.69
2022-12-07T19:02:13.134Z,21.63
2022-12-07T19:03:44.842Z,20.27
2022-12-07T19:05:16.036Z,22.90
2022-12-07T19:06:47.563Z,22.39
2022-12-07T19:08:19.110Z,23.98
2022-12-07T19:09:50.952Z,20.57
2022-12-07T19:11:23.967Z,23.21
2022-12-07T19:13:00.610Z,22.74
2022-12-07T19:14:32.146Z,22.16
2022-12-07T19:16:03.649Z,25.34
2022-12-07T19:17:45.174Z,23.90
2022-12-07T19:19:17.356Z,26.13
2022-12-07T19:20:49.122Z,24.12
2022-12-07T19:22:20.634Z,24.82
2022-12-07T19:23:52.788Z,20.38
2022-12-07T19:25:24.090Z,23.97
2022-12-07T19:26:55.463Z,20.86
2022-12-07T19:28:27.150Z,22.22
2022-12-07T19:29:58.406Z,19.01
2022-12-07T19:31:34.947Z,22.92
2022-12-07T19:33:16.326Z,16.90
2022-12-07T19:34:47.582Z,19.07
2022-12-07T19:36:19.127Z,20.25
2022-12-07T19:37:50.844Z,19.32
2022-12-07T19:39:22.388Z,16.85
2022-12-07T19:40:53.855Z,17.64
2022-12-07T19:42:25.413Z,17.99
2022-12-07T19:43:56.898Z,17.30
2022-12-07T19:45:28.531Z,18.47
2022-12-07T19:47:04.643Z,19.22
2022-12-07T19:48:36.852Z,18.44
2022-12-07T19:50:08.101Z,17.32
2022-12-07T19:51:39.664Z,16.87
2022-12-07T19:53:16.106Z,17.31
2022-12-07T19:54:47.557Z,19.45
2022-12-07T19:56:19.142Z,21.00
2022-12-07T19:57:50.475Z,20.27
2022-12-07T19:59:21.872Z,22.41
2022-12-07T20:00:53.386Z,21.63
2022-12-07T20:02:25.137Z,19.14
2022-12-07T20:03:56.774Z,19.58
2022-12-07T20:05:28.193Z,20.14
2022-12-07T20:06:59.625Z,20.06
2022-12-07T20:08:31.454Z,20.12